createdAt,value
2019-05-30T00:01:35.287Z,12.62
2019-05-30T00:04:06.303Z,12.45
2019-05-30T00:06:36.809Z,12.62
2019-05-30T00:09:09.330Z,12.59
2019-05-30T00:11:40.157Z,12.59
2019-05-30T00:14:10.983Z,12.55
2019-05-30T00:16:42.843Z,12.47
2019-05-30T00:19:13.833Z,12.41
2019-05-30T00:21:44.809Z,12.38
2019-05-30T00:24:15.579Z,12.42
2019-05-30T00:26:46.264Z,12.43
2019-05-30T00:29:17.003Z,12.31
2019-05-30T00:31:50.155Z,12.40
2019-05-30T00:34:23.891Z,12.26
2019-05-30T00:36:55.647Z,12.35
2019-05-30T00:39:26.607Z,12.25
2019-05-30T00:41:57.840Z,12.28
2019-05-30T00:44:29.028Z,12.10
2019-05-30T00:47:00.631Z,12.11
2019-05-30T00:49:31.723Z,12.04
2019-05-30T00:52:02.714Z,11.96
2019-05-30T00:54:33.749Z,12.06
2019-05-30T00:57:04.937Z,11.95
2019-05-30T00:59:35.644Z,11.97
2019-05-30T01:02:07.027Z,11.98
2019-05-30T01:04:39.636Z,11.93
2019-05-30T01:07:10.551Z,11.92
2019-05-30T01:09:41.449Z,11.79
2019-05-30T01:12:11.982Z,11.81
2019-05-30T01:14:42.704Z,11.80
2019-05-30T01:17:13.621Z,11.70
2019-05-30T01:19:44.457Z,11.74
2019-05-30T01:22:15.503Z,11.70
2019-05-30T01:24:46.524Z,11.76
2019-05-30T01:27:17.447Z,11.66
2019-05-30T01:29:48.391Z,11.64
2019-05-30T01:32:28.778Z,11.66
2019-05-30T01:35:02.003Z,11.64
2019-05-30T01:37:33.320Z,11.68
2019-05-30T01:40:06.463Z,11.62
2019-05-30T01:42:37.612Z,11.58
2019-05-30T01:45:08.773Z,11.50
2019-05-30T01:47:39.738Z,11.53
2019-05-30T01:50:11.333Z,11.48
2019-05-30T01:52:42.179Z,11.48
2019-05-30T01:55:13.221Z,11.49
2019-05-30T01:57:44.333Z,11.38
2019-05-30T02:00:21.385Z,11.41
2019-05-30T02:02:49.563Z,11.36
2019-05-30T02:05:20.455Z,11.37
2019-05-30T02:07:51.563Z,11.42
2019-05-30T02:10:22.567Z,11.33
2019-05-30T02:12:53.050Z,11.31
2019-05-30T02:15:23.935Z,11.38
2019-05-30T02:17:54.758Z,11.32
2019-05-30T02:20:25.982Z,11.29
2019-05-30T02:22:56.823Z,11.28
2019-05-30T02:25:27.701Z,11.28
2019-05-30T02:27:58.617Z,11.24
2019-05-30T02:30:29.457Z,11.24
2019-05-30T02:33:00.727Z,11.27
2019-05-30T02:35:31.639Z,11.13
2019-05-30T02:38:03.011Z,11.19
2019-05-30T02:40:34.225Z,11.18
2019-05-30T02:43:05.774Z,11.10
2019-05-30T02:45:37.350Z,11.16
2019-05-30T02:48:09.840Z,11.10
2019-05-30T02:50:40.946Z,11.04
2019-05-30T02:53:13.012Z,11.00
2019-05-30T02:55:44.102Z,11.05
2019-05-30T02:58:15.000Z,10.97
2019-05-30T03:00:45.729Z,10.97
2019-05-30T03:03:16.462Z,10.99
2019-05-30T03:05:47.195Z,10.88
2019-05-30T03:08:17.933Z,10.85
2019-05-30T03:10:48.445Z,10.87
2019-05-30T03:13:19.218Z,10.88
2019-05-30T03:15:50.340Z,10.84
2019-05-30T03:18:21.077Z,10.89
2019-05-30T03:20:52.045Z,10.94
2019-05-30T03:23:22.849Z,10.90
2019-05-30T03:25:53.628Z,10.83
2019-05-30T03:28:26.902Z,10.87
2019-05-30T03:30:59.299Z,10.80
2019-05-30T03:33:38.801Z,10.78
2019-05-30T03:36:09.180Z,10.84
2019-05-30T03:38:35.234Z,10.80
2019-05-30T03:41:07.514Z,10.85
2019-05-30T03:43:38.751Z,10.75
2019-05-30T03:46:15.358Z,10.80
2019-05-30T03:48:49.263Z,10.78
2019-05-30T03:51:22.041Z,10.80
2019-05-30T03:53:53.354Z,10.75
2019-05-30T03:56:30.135Z,10.77
2019-05-30T03:59:14.694Z,10.70
2019-05-30T04:01:54.377Z,10.75
2019-05-30T04:04:28.247Z,10.74
2019-05-30T04:07:04.589Z,10.78
2019-05-30T04:09:37.660Z,10.77
2019-05-30T04:12:23.754Z,10.81
2019-05-30T04:14:57.265Z,10.87
2019-05-30T04:17:27.906Z,10.86
2019-05-30T04:19:58.388Z,10.81
2019-05-30T04:22:28.783Z,10.82
2019-05-30T04:24:59.547Z,10.81
2019-05-30T04:27:30.411Z,10.83
2019-05-30T04:30:00.832Z,10.94
2019-05-30T04:32:31.615Z,10.99
2019-05-30T04:35:02.470Z,10.94
2019-05-30T04:37:33.311Z,10.96
2019-05-30T04:40:08.463Z,11.01
2019-05-30T04:42:40.104Z,11.06
2019-05-30T04:45:11.791Z,11.20
2019-05-30T04:47:43.030Z,11.47
2019-05-30T04:50:15.785Z,11.76
2019-05-30T04:52:46.922Z,11.89
2019-05-30T04:55:20.598Z,12.15
2019-05-30T04:57:50.530Z,12.40
2019-05-30T05:00:21.729Z,12.56
2019-05-30T05:02:52.584Z,12.84
2019-05-30T05:05:26.914Z,13.17
2019-05-30T05:07:56.512Z,13.24
2019-05-30T05:10:27.328Z,13.30
2019-05-30T05:12:58.124Z,13.44
2019-05-30T05:15:28.960Z,13.61
2019-05-30T05:17:59.429Z,13.58
2019-05-30T05:20:30.218Z,13.98
2019-05-30T05:23:01.075Z,14.01
2019-05-30T05:25:31.807Z,14.16
2019-05-30T05:28:02.754Z,14.32
2019-05-30T05:30:33.818Z,14.52
2019-05-30T05:33:05.258Z,14.50
2019-05-30T05:35:36.167Z,14.80
2019-05-30T05:38:06.998Z,14.75
2019-05-30T05:40:38.086Z,15.05
2019-05-30T05:43:09.016Z,15.05
2019-05-30T05:45:39.925Z,14.98
2019-05-30T05:48:10.860Z,15.07
2019-05-30T05:50:41.729Z,14.98
2019-05-30T05:53:12.394Z,15.05
2019-05-30T05:55:43.282Z,14.78
2019-05-30T05:58:14.236Z,14.82
2019-05-30T06:00:45.146Z,14.92
2019-05-30T06:03:16.793Z,14.96
2019-05-30T06:05:53.135Z,14.88
2019-05-30T06:08:21.497Z,15.06
2019-05-30T06:10:52.659Z,15.16
2019-05-30T06:13:23.225Z,15.20
2019-05-30T06:15:54.228Z,15.28
2019-05-30T06:18:24.842Z,15.42
2019-05-30T06:20:55.983Z,15.51
2019-05-30T06:23:27.795Z,15.46
2019-05-30T06:25:58.861Z,15.44
2019-05-30T06:28:29.738Z,15.49
2019-05-30T06:31:00.616Z,15.64
2019-05-30T06:33:31.454Z,15.66
2019-05-30T06:36:02.421Z,15.80
2019-05-30T06:38:33.236Z,15.99
2019-05-30T06:41:04.166Z,15.83
2019-05-30T06:43:35.121Z,15.80
2019-05-30T06:46:06.055Z,15.71
2019-05-30T06:48:36.780Z,15.86
2019-05-30T06:51:07.864Z,15.93
2019-05-30T06:53:38.663Z,15.94
2019-05-30T06:56:09.085Z,15.92
2019-05-30T06:58:48.357Z,15.86
2019-05-30T07:01:12.636Z,15.81
2019-05-30T07:03:43.611Z,15.67
2019-05-30T07:06:15.120Z,15.68
2019-05-30T07:08:46.475Z,15.75
2019-05-30T07:11:17.405Z,15.76
2019-05-30T07:13:48.231Z,15.68
2019-05-30T07:16:18.951Z,15.76
2019-05-30T07:18:49.837Z,15.60
2019-05-30T07:21:20.731Z,15.75
2019-05-30T07:23:51.611Z,15.84
2019-05-30T07:26:23.740Z,16.03
2019-05-30T07:28:54.883Z,16.14
2019-05-30T07:31:26.039Z,16.36
2019-05-30T07:33:56.653Z,16.38
2019-05-30T07:36:28.228Z,16.52
2019-05-30T07:38:59.286Z,16.56
2019-05-30T07:41:30.646Z,16.56
2019-05-30T07:44:01.803Z,16.48
2019-05-30T07:46:33.038Z,16.47
2019-05-30T07:49:04.735Z,16.51
2019-05-30T07:51:35.471Z,16.62
2019-05-30T07:54:06.633Z,16.57
2019-05-30T07:56:37.997Z,16.66
2019-05-30T07:59:08.903Z,16.68
2019-05-30T08:01:39.825Z,16.62
2019-05-30T08:04:10.637Z,16.66
2019-05-30T08:06:41.405Z,16.70
2019-05-30T08:09:12.166Z,16.72
2019-05-30T08:11:42.973Z,16.73
2019-05-30T08:14:13.783Z,16.73
2019-05-30T08:16:44.780Z,16.72
2019-05-30T08:19:15.315Z,16.79
2019-05-30T08:21:46.197Z,16.86
2019-05-30T08:24:17.245Z,16.88
2019-05-30T08:26:48.390Z,16.83
2019-05-30T08:29:19.273Z,16.93
2019-05-30T08:31:52.174Z,16.86
2019-05-30T08:34:23.090Z,16.88
2019-05-30T08:36:53.903Z,16.90
2019-05-30T08:39:24.663Z,17.04
2019-05-30T08:41:55.576Z,17.00
2019-05-30T08:44:26.435Z,17.02
2019-05-30T08:46:57.440Z,17.06
2019-05-30T08:49:28.330Z,17.12
2019-05-30T08:51:59.191Z,17.24
2019-05-30T08:54:30.622Z,17.25
2019-05-30T08:57:01.832Z,17.28
2019-05-30T08:59:32.684Z,17.40
2019-05-30T09:02:03.633Z,17.38
2019-05-30T09:04:34.271Z,17.44
2019-05-30T09:07:06.102Z,17.46
2019-05-30T09:09:38.694Z,17.56
2019-05-30T09:12:09.649Z,17.71
2019-05-30T09:14:41.162Z,17.70
2019-05-30T09:17:11.941Z,17.72
2019-05-30T09:19:43.191Z,17.76
2019-05-30T09:22:14.315Z,17.75
2019-05-30T09:24:45.923Z,17.80
2019-05-30T09:27:16.856Z,17.93
2019-05-30T09:29:48.290Z,17.94
2019-05-30T09:32:19.299Z,17.94
2019-05-30T09:34:49.830Z,17.98
2019-05-30T09:37:21.179Z,17.96
2019-05-30T09:39:52.130Z,17.95
2019-05-30T09:42:22.994Z,17.97
2019-05-30T09:44:53.903Z,18.00
2019-05-30T09:47:24.728Z,18.08
2019-05-30T09:49:55.565Z,18.13
2019-05-30T09:52:26.400Z,18.09
2019-05-30T09:54:57.145Z,18.09
2019-05-30T09:57:27.976Z,18.24
2019-05-30T09:59:58.914Z,18.28
2019-05-30T10:02:29.479Z,18.39
2019-05-30T10:05:00.321Z,18.31
2019-05-30T10:07:31.115Z,18.42
2019-05-30T10:10:01.945Z,18.56
2019-05-30T10:12:32.792Z,18.39
2019-05-30T10:15:07.651Z,18.47
2019-05-30T10:17:38.557Z,18.41
2019-05-30T10:20:10.770Z,18.50
2019-05-30T10:22:41.843Z,18.62
2019-05-30T10:25:13.894Z,18.53
2019-05-30T10:27:46.261Z,18.71
2019-05-30T10:30:17.594Z,18.78
2019-05-30T10:32:50.147Z,18.79
2019-05-30T10:35:21.484Z,18.86
2019-05-30T10:37:52.861Z,18.78
2019-05-30T10:40:24.782Z,18.83
2019-05-30T10:42:56.878Z,18.94
2019-05-30T10:45:28.907Z,18.93
2019-05-30T10:47:59.995Z,19.08
2019-05-30T10:50:30.818Z,19.24
2019-05-30T10:53:02.592Z,19.24
2019-05-30T10:55:34.298Z,19.15
2019-05-30T10:58:05.546Z,19.24
2019-05-30T11:00:49.397Z,19.32
2019-05-30T11:03:23.344Z,19.32
2019-05-30T11:06:15.027Z,19.39
2019-05-30T11:08:47.934Z,19.50
2019-05-30T11:11:20.122Z,19.47
2019-05-30T11:13:51.147Z,19.50
2019-05-30T11:16:22.194Z,19.59
2019-05-30T11:18:54.467Z,19.71
2019-05-30T11:21:26.050Z,19.75
2019-05-30T11:23:58.285Z,19.78
2019-05-30T11:26:29.596Z,19.85
2019-05-30T11:29:00.578Z,19.78
2019-05-30T11:31:31.612Z,19.78
2019-05-30T11:34:02.156Z,19.87
2019-05-30T11:36:33.450Z,19.87
2019-05-30T11:39:05.882Z,19.83
2019-05-30T11:41:36.674Z,19.99
2019-05-30T11:44:07.537Z,20.00
2019-05-30T11:46:38.374Z,20.04
2019-05-30T11:49:09.320Z,20.13
2019-05-30T11:51:40.277Z,20.20
2019-05-30T11:54:11.099Z,20.23
2019-05-30T11:56:42.015Z,20.29
2019-05-30T11:59:12.846Z,20.40
2019-05-30T12:01:43.560Z,20.42
2019-05-30T12:04:14.304Z,20.51
2019-05-30T12:06:45.177Z,20.35
2019-05-30T12:09:16.115Z,20.37
2019-05-30T12:11:46.926Z,20.41
2019-05-30T12:14:21.279Z,20.48
2019-05-30T12:16:51.104Z,20.51
2019-05-30T12:19:22.174Z,20.62
2019-05-30T12:21:53.567Z,20.58
2019-05-30T12:24:24.255Z,20.61
2019-05-30T12:26:56.007Z,20.74
2019-05-30T12:29:26.994Z,20.89
2019-05-30T12:32:00.192Z,21.05
2019-05-30T12:34:31.041Z,21.20
2019-05-30T12:37:02.839Z,21.30
2019-05-30T12:39:33.518Z,21.24
2019-05-30T12:42:04.362Z,21.39
2019-05-30T12:44:35.297Z,21.29
2019-05-30T12:47:06.308Z,21.16
2019-05-30T12:49:37.178Z,21.29
2019-05-30T12:52:08.213Z,21.18
2019-05-30T12:54:41.864Z,21.11
2019-05-30T12:57:12.788Z,21.21
2019-05-30T12:59:43.394Z,21.18
2019-05-30T13:02:14.427Z,21.27
2019-05-30T13:04:44.988Z,21.34
2019-05-30T13:07:15.800Z,21.22
2019-05-30T13:09:46.396Z,21.23
2019-05-30T13:12:17.188Z,21.32
2019-05-30T13:14:50.034Z,21.47
2019-05-30T13:17:21.101Z,21.42
2019-05-30T13:19:52.186Z,21.66
2019-05-30T13:22:22.780Z,21.62
2019-05-30T13:24:53.746Z,21.61
2019-05-30T13:27:24.875Z,21.74
2019-05-30T13:29:55.988Z,21.68
2019-05-30T13:32:26.613Z,21.70
2019-05-30T13:34:57.593Z,21.70
2019-05-30T13:37:29.214Z,21.75
2019-05-30T13:40:01.352Z,21.85
2019-05-30T13:42:33.390Z,21.86
2019-05-30T13:45:09.961Z,21.99
2019-05-30T13:47:43.397Z,21.89
2019-05-30T13:50:16.162Z,21.97
2019-05-30T13:52:47.120Z,22.02
2019-05-30T13:55:17.826Z,22.12
2019-05-30T13:57:48.819Z,22.16
2019-05-30T14:00:20.401Z,22.24
2019-05-30T14:02:51.323Z,22.44
2019-05-30T14:05:22.329Z,22.38
2019-05-30T14:07:53.399Z,22.44
2019-05-30T14:10:24.219Z,22.37
2019-05-30T14:12:55.348Z,22.53
2019-05-30T14:15:26.302Z,22.63
2019-05-30T14:17:58.594Z,22.78
2019-05-30T14:20:29.525Z,22.96
2019-05-30T14:23:01.246Z,22.98
2019-05-30T14:25:32.206Z,22.97
2019-05-30T14:28:04.186Z,23.02
2019-05-30T14:30:35.210Z,23.06
2019-05-30T14:33:06.405Z,23.16
2019-05-30T14:35:37.432Z,23.30
2019-05-30T14:38:08.776Z,23.41
2019-05-30T14:40:39.801Z,23.54
2019-05-30T14:43:11.539Z,23.55
2019-05-30T14:45:42.503Z,23.58
2019-05-30T14:48:12.963Z,23.74
2019-05-30T14:50:43.865Z,23.57
2019-05-30T14:53:14.703Z,23.60
2019-05-30T14:55:45.581Z,23.51
2019-05-30T14:58:17.807Z,23.43
2019-05-30T15:00:49.186Z,23.40
2019-05-30T15:03:20.229Z,23.54
2019-05-30T15:05:51.111Z,23.56
2019-05-30T15:08:22.017Z,23.59
2019-05-30T15:10:52.989Z,23.48
2019-05-30T15:13:23.735Z,23.59
2019-05-30T15:15:57.047Z,23.76
2019-05-30T15:18:27.277Z,23.74
2019-05-30T15:20:58.197Z,23.84
2019-05-30T15:23:29.031Z,23.70
2019-05-30T15:26:00.127Z,23.62
2019-05-30T15:28:30.551Z,23.66
2019-05-30T15:31:01.018Z,23.64
2019-05-30T15:33:31.877Z,23.73
2019-05-30T15:36:02.877Z,23.66
2019-05-30T15:38:33.668Z,23.63
2019-05-30T15:41:05.025Z,23.48
2019-05-30T15:43:35.571Z,23.74
2019-05-30T15:46:07.727Z,23.59
2019-05-30T15:48:38.780Z,23.64
2019-05-30T15:51:10.443Z,23.61
2019-05-30T15:53:41.351Z,23.46
2019-05-30T15:56:13.154Z,23.20
2019-05-30T15:58:44.295Z,23.29
2019-05-30T16:01:15.971Z,23.13
2019-05-30T16:03:46.917Z,23.15
2019-05-30T16:06:18.673Z,23.20
2019-05-30T16:08:49.483Z,23.17
2019-05-30T16:11:21.255Z,23.19
2019-05-30T16:13:52.449Z,23.20
2019-05-30T16:16:38.959Z,23.18
2019-05-30T16:18:56.061Z,23.03
2019-05-30T16:21:26.995Z,23.04
2019-05-30T16:23:59.354Z,22.98
2019-05-30T16:26:30.351Z,23.01
2019-05-30T16:29:01.157Z,23.11
2019-05-30T16:31:32.463Z,23.06
2019-05-30T16:34:03.216Z,23.00
2019-05-30T16:36:34.043Z,22.88
2019-05-30T16:39:07.540Z,22.91
2019-05-30T16:41:42.842Z,22.78
2019-05-30T16:44:10.883Z,22.64
2019-05-30T16:46:41.822Z,22.74
2019-05-30T16:49:12.727Z,22.71
2019-05-30T16:51:43.245Z,22.67
2019-05-30T16:54:15.157Z,22.75
2019-05-30T16:56:46.158Z,22.64
2019-05-30T16:59:16.991Z,22.93
2019-05-30T17:01:57.272Z,23.05
2019-05-30T17:04:21.008Z,23.14
2019-05-30T17:06:51.636Z,23.05
2019-05-30T17:09:23.370Z,23.09
2019-05-30T17:11:54.654Z,22.92
2019-05-30T17:14:25.946Z,22.64
2019-05-30T17:16:56.665Z,22.17
2019-05-30T17:19:27.722Z,21.96
2019-05-30T17:21:58.659Z,22.02
2019-05-30T17:24:29.665Z,21.55
2019-05-30T17:27:00.524Z,21.53
2019-05-30T17:29:31.508Z,21.41
2019-05-30T17:32:02.407Z,21.43
2019-05-30T17:34:33.460Z,21.32
2019-05-30T17:37:04.361Z,21.32
2019-05-30T17:39:35.214Z,21.18
2019-05-30T17:42:06.324Z,21.26
2019-05-30T17:44:37.828Z,21.16
2019-05-30T17:47:11.604Z,21.20
2019-05-30T17:49:42.582Z,21.05
2019-05-30T17:52:13.704Z,21.14
2019-05-30T17:54:44.205Z,20.97
2019-05-30T17:57:15.614Z,21.06
2019-05-30T17:59:46.718Z,20.96
2019-05-30T18:02:17.808Z,20.88
2019-05-30T18:04:48.683Z,20.82
2019-05-30T18:07:20.810Z,21.00
2019-05-30T18:09:54.532Z,20.89
2019-05-30T18:12:25.169Z,20.86
2019-05-30T18:14:56.249Z,20.81
2019-05-30T18:17:27.233Z,20.72
2019-05-30T18:19:58.334Z,20.88
2019-05-30T18:22:29.700Z,20.78
2019-05-30T18:25:00.802Z,20.81
2019-05-30T18:27:32.199Z,20.56
2019-05-30T18:30:03.140Z,20.54
2019-05-30T18:32:34.089Z,20.44
2019-05-30T18:35:08.419Z,20.44
2019-05-30T18:37:39.396Z,20.40
2019-05-30T18:40:11.089Z,20.28
2019-05-30T18:42:42.096Z,20.31
2019-05-30T18:45:13.588Z,20.18
2019-05-30T18:47:44.662Z,20.02
2019-05-30T18:50:15.566Z,20.01
2019-05-30T18:52:46.498Z,20.05
2019-05-30T18:55:17.016Z,19.97
2019-05-30T18:57:48.012Z,20.04
2019-05-30T19:00:18.713Z,20.06
2019-05-30T19:02:49.945Z,20.03
2019-05-30T19:05:20.862Z,20.04
2019-05-30T19:07:51.916Z,20.00
2019-05-30T19:10:22.946Z,19.96
2019-05-30T19:12:53.978Z,20.02
2019-05-30T19:15:28.362Z,19.90
2019-05-30T19:17:57.798Z,19.98
2019-05-30T19:20:29.672Z,19.99
2019-05-30T19:23:00.934Z,20.06
2019-05-30T19:25:32.396Z,19.98
2019-05-30T19:28:04.933Z,19.90
2019-05-30T19:30:36.963Z,19.90
2019-05-30T19:33:08.014Z,19.88
2019-05-30T19:35:38.874Z,19.86
2019-05-30T19:38:09.709Z,19.90
2019-05-30T19:40:40.614Z,19.92
2019-05-30T19:43:13.306Z,19.86
2019-05-30T19:45:44.069Z,19.89
2019-05-30T19:48:15.682Z,19.81
2019-05-30T19:50:46.748Z,19.82
2019-05-30T19:53:17.274Z,19.85
2019-05-30T19:55:48.090Z,19.68
2019-05-30T19:58:18.898Z,19.70
2019-05-30T20:00:58.544Z,19.67
2019-05-30T20:03:35.783Z,19.69
2019-05-30T20:05:55.674Z,19.72
2019-05-30T20:08:26.641Z,19.58
2019-05-30T20:10:57.628Z,19.65
2019-05-30T20:13:28.486Z,19.56
2019-05-30T20:15:59.365Z,19.54
2019-05-30T20:18:31.449Z,19.52
2019-05-30T20:21:02.219Z,19.42
2019-05-30T20:23:48.436Z,19.41
2019-05-30T20:26:05.408Z,19.42
2019-05-30T20:28:36.758Z,19.34
2019-05-30T20:31:07.726Z,19.27
2019-05-30T20:33:40.621Z,19.26
2019-05-30T20:36:12.007Z,19.18
2019-05-30T20:38:42.976Z,19.22
2019-05-30T20:41:14.204Z,19.12
2019-05-30T20:43:45.265Z,19.17
2019-05-30T20:46:23.079Z,19.15
2019-05-30T20:48:48.901Z,19.10
2019-05-30T20:51:21.542Z,19.14
2019-05-30T20:53:54.772Z,19.18
2019-05-30T20:56:25.164Z,19.22
2019-05-30T20:58:56.100Z,19.12
2019-05-30T21:01:27.026Z,19.08
2019-05-30T21:03:58.069Z,18.96
2019-05-30T21:06:29.167Z,18.96
2019-05-30T21:09:00.121Z,18.90
2019-05-30T21:11:31.987Z,18.78
2019-05-30T21:14:04.264Z,18.74
2019-05-30T21:16:37.599Z,18.71
2019-05-30T21:19:08.211Z,18.68
2019-05-30T21:21:40.003Z,18.73
2019-05-30T21:24:11.173Z,18.65
2019-05-30T21:26:42.789Z,18.64
2019-05-30T21:29:13.772Z,18.66
2019-05-30T21:31:45.638Z,18.53
2019-05-30T21:34:16.574Z,18.53
2019-05-30T21:36:48.039Z,18.57
2019-05-30T21:39:18.943Z,18.56
2019-05-30T21:41:49.820Z,18.56
2019-05-30T21:44:20.875Z,18.56
2019-05-30T21:46:51.786Z,18.57
2019-05-30T21:49:22.652Z,18.58
2019-05-30T21:51:54.047Z,18.58
2019-05-30T21:54:24.825Z,18.56
2019-05-30T21:56:55.294Z,18.58
2019-05-30T21:59:26.399Z,18.56
2019-05-30T22:01:57.765Z,18.50
2019-05-30T22:04:28.655Z,18.52
2019-05-30T22:06:59.492Z,18.52
2019-05-30T22:09:30.317Z,18.50
2019-05-30T22:12:01.168Z,18.48
2019-05-30T22:14:32.034Z,18.38
2019-05-30T22:17:02.861Z,18.40
2019-05-30T22:19:33.740Z,18.43
2019-05-30T22:22:04.855Z,18.44
2019-05-30T22:24:35.713Z,18.39
2019-05-30T22:27:06.577Z,18.36
2019-05-30T22:29:40.285Z,18.37
2019-05-30T22:32:09.904Z,18.24
2019-05-30T22:34:40.641Z,18.31
2019-05-30T22:37:11.515Z,18.34
2019-05-30T22:39:42.772Z,18.24
2019-05-30T22:42:13.679Z,18.19
2019-05-30T22:44:44.489Z,18.17
2019-05-30T22:47:14.926Z,18.18
2019-05-30T22:49:46.675Z,18.18
2019-05-30T22:52:17.787Z,18.15
2019-05-30T22:54:49.063Z,18.16
2019-05-30T22:57:19.919Z,18.20
2019-05-30T22:59:50.971Z,18.17
2019-05-30T23:02:21.780Z,18.24
2019-05-30T23:04:52.409Z,18.18
2019-05-30T23:07:23.508Z,18.11
2019-05-30T23:09:54.067Z,18.12
2019-05-30T23:12:25.039Z,18.15
2019-05-30T23:14:56.322Z,18.10
2019-05-30T23:17:27.331Z,18.11
2019-05-30T23:19:58.143Z,18.07
2019-05-30T23:22:28.897Z,18.04
2019-05-30T23:24:59.765Z,18.02
2019-05-30T23:27:30.377Z,17.99
2019-05-30T23:30:01.199Z,17.97
2019-05-30T23:32:31.665Z,18.00
2019-05-30T23:35:02.774Z,17.98
2019-05-30T23:37:33.633Z,17.92
2019-05-30T23:40:05.921Z,17.98
2019-05-30T23:42:36.603Z,17.87
2019-05-30T23:45:08.683Z,17.84
2019-05-30T23:47:39.552Z,17.76
2019-05-30T23:50:11.065Z,17.73
2019-05-30T23:52:41.791Z,17.76
2019-05-30T23:55:12.591Z,17.67
2019-05-30T23:57:43.411Z,17.63
